createdAt,value
2022-10-30T00:01:04.474Z,17.62
2022-10-30T00:03:33.070Z,17.45
2022-10-30T00:06:05.800Z,17.76
2022-10-30T00:08:34.619Z,17.49
2022-10-30T00:11:09.359Z,17.93
2022-10-30T00:13:38.153Z,17.22
2022-10-30T00:16:09.305Z,17.80
2022-10-30T00:18:38.609Z,18.19
2022-10-30T00:21:08.895Z,18.34
2022-10-30T00:23:37.930Z,18.38
2022-10-30T00:26:08.637Z,18.13
2022-10-30T00:28:37.093Z,17.65
2022-10-30T00:31:06.713Z,18.47
2022-10-30T00:33:35.961Z,18.51
2022-10-30T00:36:06.756Z,18.38
2022-10-30T00:38:36.192Z,19.02
2022-10-30T00:41:04.833Z,18.70
2022-10-30T00:43:37.052Z,18.28
2022-10-30T00:46:10.111Z,18.28
2022-10-30T00:48:39.010Z,17.88
2022-10-30T00:51:09.244Z,18.21
2022-10-30T00:53:37.754Z,18.30
2022-10-30T00:56:08.303Z,18.44
2022-10-30T00:58:42.215Z,18.34
2022-10-30T01:01:13.364Z,18.18
2022-10-30T01:03:42.358Z,17.65
2022-10-30T01:06:13.102Z,17.74
2022-10-30T01:08:42.655Z,17.95
2022-10-30T01:11:11.852Z,17.82
2022-10-30T01:13:42.791Z,17.92
2022-10-30T01:16:34.775Z,18.07
2022-10-30T01:19:13.701Z,18.03
2022-10-30T01:21:51.961Z,17.91
2022-10-30T01:24:32.220Z,18.18
2022-10-30T01:27:02.991Z,18.35
2022-10-30T01:29:35.427Z,18.30
2022-10-30T01:32:15.446Z,18.08
2022-10-30T01:34:50.571Z,18.20
2022-10-30T01:37:23.637Z,18.30
2022-10-30T01:39:52.218Z,18.15
2022-10-30T01:42:54.176Z,18.29
2022-10-30T01:45:40.969Z,18.32
2022-10-30T01:48:21.327Z,18.12
2022-10-30T01:50:57.872Z,18.14
2022-10-30T01:53:37.466Z,18.54
2022-10-30T01:56:16.949Z,18.11
2022-10-30T01:58:52.040Z,17.26
2022-10-30T02:01:24.307Z,17.83
2022-10-30T02:03:53.174Z,17.83
2022-10-30T02:06:22.580Z,18.18
2022-10-30T02:08:51.987Z,17.95
2022-10-30T02:11:20.651Z,18.13
2022-10-30T02:13:49.041Z,17.89
2022-10-30T02:16:17.710Z,18.07
2022-10-30T02:18:47.783Z,18.04
2022-10-30T02:21:17.975Z,17.99
2022-10-30T02:23:46.655Z,18.35
2022-10-30T02:26:15.982Z,18.62
2022-10-30T02:28:44.215Z,18.26
2022-10-30T02:31:12.904Z,18.13
2022-10-30T02:33:45.965Z,18.29
2022-10-30T02:36:15.660Z,18.30
2022-10-30T02:38:46.059Z,18.22
2022-10-30T02:41:14.800Z,18.33
2022-10-30T02:43:43.679Z,18.48
2022-10-30T02:46:12.275Z,18.83
2022-10-30T02:48:40.926Z,18.74
2022-10-30T02:51:10.339Z,18.48
2022-10-30T02:53:39.809Z,18.51
2022-10-30T02:56:12.984Z,18.49
2022-10-30T02:58:42.842Z,18.29
2022-10-30T03:01:13.255Z,18.72
2022-10-30T03:03:42.858Z,18.28
2022-10-30T03:06:15.719Z,18.64
2022-10-30T03:08:45.014Z,18.52
2022-10-30T03:11:16.601Z,18.37
2022-10-30T03:13:45.837Z,18.22
2022-10-30T03:16:15.804Z,18.68
2022-10-30T03:18:44.484Z,18.36
2022-10-30T03:21:15.782Z,18.56
2022-10-30T03:23:46.211Z,18.39
2022-10-30T03:26:16.363Z,18.47
2022-10-30T03:29:06.907Z,18.17
2022-10-30T03:31:35.644Z,18.12
2022-10-30T03:34:33.671Z,18.31
2022-10-30T03:37:06.652Z,18.28
2022-10-30T03:39:35.792Z,18.48
2022-10-30T03:42:06.586Z,18.65
2022-10-30T03:44:35.249Z,18.30
2022-10-30T03:47:05.212Z,18.11
2022-10-30T03:49:38.657Z,18.29
2022-10-30T03:52:11.808Z,18.05
2022-10-30T03:54:40.425Z,18.17
2022-10-30T03:57:11.467Z,18.22
2022-10-30T04:00:00.015Z,17.59
2022-10-30T04:02:46.557Z,17.62
2022-10-30T04:05:16.874Z,17.68
2022-10-30T04:07:45.457Z,17.84
2022-10-30T04:10:20.870Z,17.68
2022-10-30T04:12:54.982Z,18.04
2022-10-30T04:15:25.204Z,17.88
2022-10-30T04:17:54.458Z,17.78
2022-10-30T04:20:24.906Z,17.73
2022-10-30T04:22:56.943Z,17.75
2022-10-30T04:25:26.205Z,17.48
2022-10-30T04:27:56.892Z,17.32
2022-10-30T04:30:27.331Z,17.11
2022-10-30T04:32:56.427Z,17.58
2022-10-30T04:35:26.548Z,17.58
2022-10-30T04:37:55.457Z,17.73
2022-10-30T04:40:24.792Z,17.59
2022-10-30T04:43:00.049Z,17.63
2022-10-30T04:45:29.185Z,17.66
2022-10-30T04:48:02.864Z,18.29
2022-10-30T04:50:33.524Z,18.05
2022-10-30T04:53:03.180Z,17.98
2022-10-30T04:55:32.326Z,18.08
2022-10-30T04:58:04.240Z,18.43
2022-10-30T05:00:37.040Z,18.25
2022-10-30T05:03:18.779Z,18.17
2022-10-30T05:05:48.058Z,18.48
2022-10-30T05:08:16.718Z,18.20
2022-10-30T05:10:45.100Z,18.14
2022-10-30T05:13:17.092Z,18.55
2022-10-30T05:15:45.873Z,18.54
2022-10-30T05:18:14.630Z,18.59
2022-10-30T05:20:43.665Z,17.87
2022-10-30T05:23:12.738Z,17.36
2022-10-30T05:25:41.138Z,17.85
2022-10-30T05:28:11.555Z,17.70
2022-10-30T05:30:48.440Z,17.75
2022-10-30T05:33:36.599Z,17.61
2022-10-30T05:36:06.039Z,17.93
2022-10-30T05:38:34.686Z,18.32
2022-10-30T05:41:03.499Z,18.18
2022-10-30T05:43:31.877Z,18.25
2022-10-30T05:46:02.066Z,18.17
2022-10-30T05:48:30.886Z,18.11
2022-10-30T05:50:59.675Z,18.21
2022-10-30T05:53:30.831Z,18.33
2022-10-30T05:56:00.848Z,18.39
2022-10-30T05:58:33.214Z,18.30
2022-10-30T06:01:08.410Z,18.03
2022-10-30T06:03:46.655Z,18.37
2022-10-30T06:06:15.509Z,17.94
2022-10-30T06:08:45.287Z,18.10
2022-10-30T06:12:11.466Z,18.51
2022-10-30T06:15:06.569Z,18.39
2022-10-30T06:17:35.463Z,18.12
2022-10-30T06:20:16.320Z,18.90
2022-10-30T06:23:22.950Z,18.69
2022-10-30T06:26:00.231Z,19.00
2022-10-30T06:28:45.397Z,18.85
2022-10-30T06:31:16.004Z,18.73
2022-10-30T06:33:44.928Z,19.13
2022-10-30T06:36:17.563Z,19.25
2022-10-30T06:38:46.689Z,19.06
2022-10-30T06:41:18.766Z,19.02
2022-10-30T06:44:12.202Z,18.87
2022-10-30T06:46:41.896Z,18.67
2022-10-30T06:49:10.889Z,18.69
2022-10-30T06:51:40.844Z,18.87
2022-10-30T06:54:09.549Z,18.86
2022-10-30T06:56:41.055Z,18.62
2022-10-30T06:59:49.544Z,18.78
2022-10-30T07:02:44.512Z,18.63
2022-10-30T07:05:15.549Z,18.37
2022-10-30T07:07:43.890Z,18.35
2022-10-30T07:10:12.650Z,18.12
2022-10-30T07:13:02.004Z,17.94
2022-10-30T07:15:56.472Z,18.36
2022-10-30T07:18:33.157Z,18.70
2022-10-30T07:21:03.401Z,18.88
2022-10-30T07:23:33.649Z,18.77
2022-10-30T07:26:12.807Z,18.35
2022-10-30T07:28:47.127Z,18.48
2022-10-30T07:31:29.037Z,19.13
2022-10-30T07:34:27.005Z,19.00
2022-10-30T07:37:24.606Z,19.14
2022-10-30T07:40:12.942Z,19.81
2022-10-30T07:43:02.561Z,19.78
2022-10-30T07:45:48.835Z,19.84
2022-10-30T07:48:34.158Z,20.12
2022-10-30T07:51:09.535Z,19.97
2022-10-30T07:53:39.352Z,20.00
2022-10-30T07:56:09.178Z,19.76
2022-10-30T07:58:52.493Z,18.92
2022-10-30T08:01:21.287Z,19.28
2022-10-30T08:03:52.068Z,18.52
2022-10-30T08:06:28.838Z,19.32
2022-10-30T08:08:58.555Z,19.70
2022-10-30T08:11:29.751Z,19.19
2022-10-30T08:14:00.422Z,20.19
2022-10-30T08:16:28.917Z,20.31
2022-10-30T08:19:00.508Z,20.46
2022-10-30T08:21:29.568Z,20.42
2022-10-30T08:24:01.178Z,20.99
2022-10-30T08:26:32.461Z,20.50
2022-10-30T08:29:01.138Z,20.18
2022-10-30T08:31:31.728Z,19.74
2022-10-30T08:34:04.578Z,20.28
2022-10-30T08:36:38.737Z,19.88
2022-10-30T08:39:07.456Z,19.56
2022-10-30T08:41:44.037Z,19.60
2022-10-30T08:44:12.887Z,20.10
2022-10-30T08:47:01.419Z,19.93
2022-10-30T08:49:31.565Z,20.28
2022-10-30T08:52:02.086Z,19.41
2022-10-30T08:54:30.744Z,19.82
2022-10-30T08:56:59.443Z,20.16
2022-10-30T08:59:28.199Z,21.04
2022-10-30T09:01:59.818Z,21.36
2022-10-30T09:04:48.640Z,20.78
2022-10-30T09:07:58.199Z,20.58
2022-10-30T09:11:01.143Z,20.52
2022-10-30T09:13:30.431Z,20.84
2022-10-30T09:16:01.373Z,20.66
2022-10-30T09:18:32.157Z,20.45
2022-10-30T09:21:04.900Z,20.37
2022-10-30T09:23:39.256Z,20.11
2022-10-30T09:26:40.405Z,20.60
2022-10-30T09:29:18.644Z,20.83
2022-10-30T09:32:01.907Z,20.88
2022-10-30T09:34:32.802Z,20.95
2022-10-30T09:37:38.905Z,20.42
2022-10-30T09:40:25.019Z,20.99
2022-10-30T09:42:56.427Z,20.64
2022-10-30T09:45:49.397Z,20.64
2022-10-30T09:48:45.805Z,20.35
2022-10-30T09:51:31.263Z,19.89
2022-10-30T09:54:10.466Z,19.66
2022-10-30T09:56:46.926Z,19.49
2022-10-30T09:59:24.434Z,19.89
2022-10-30T10:01:55.521Z,19.63
2022-10-30T10:04:27.388Z,19.28
2022-10-30T10:07:22.058Z,19.62
2022-10-30T10:10:03.016Z,19.87
2022-10-30T10:13:01.399Z,20.04
2022-10-30T10:15:36.434Z,20.49
2022-10-30T10:18:12.908Z,20.60
2022-10-30T10:20:43.875Z,21.05
2022-10-30T10:23:18.525Z,20.76
2022-10-30T10:25:54.236Z,20.49
2022-10-30T10:28:42.421Z,20.88
2022-10-30T10:31:20.130Z,20.65
2022-10-30T10:33:59.339Z,21.30
2022-10-30T10:36:33.399Z,21.55
2022-10-30T10:39:13.905Z,20.96
2022-10-30T10:41:54.919Z,21.24
2022-10-30T10:44:33.539Z,20.68
2022-10-30T10:47:18.745Z,20.96
2022-10-30T10:49:57.926Z,20.62
2022-10-30T10:52:34.486Z,20.19
2022-10-30T10:55:07.106Z,20.43
2022-10-30T10:57:39.760Z,20.85
2022-10-30T11:00:10.179Z,20.50
2022-10-30T11:02:42.670Z,20.55
2022-10-30T11:05:19.813Z,20.44
2022-10-30T11:07:49.539Z,20.02
2022-10-30T11:10:20.385Z,20.56
2022-10-30T11:12:50.860Z,20.78
2022-10-30T11:15:28.225Z,21.75
2022-10-30T11:18:01.558Z,21.97
2022-10-30T11:20:34.839Z,21.95
2022-10-30T11:23:03.539Z,21.77
2022-10-30T11:25:36.149Z,21.86
2022-10-30T11:28:07.217Z,22.45
2022-10-30T11:30:35.864Z,24.34
2022-10-30T11:33:22.825Z,25.42
2022-10-30T11:35:51.468Z,25.72
2022-10-30T11:38:21.373Z,25.64
2022-10-30T11:40:52.942Z,25.66
2022-10-30T11:43:25.611Z,24.26
2022-10-30T11:45:54.895Z,25.09
2022-10-30T11:48:27.357Z,25.79
2022-10-30T11:50:59.631Z,26.74
2022-10-30T11:53:34.217Z,27.53
2022-10-30T11:56:03.652Z,27.72
2022-10-30T11:58:36.239Z,26.08
2022-10-30T12:01:07.406Z,28.01
2022-10-30T12:03:38.039Z,27.07
2022-10-30T12:06:11.283Z,28.89
2022-10-30T12:08:39.911Z,30.90
2022-10-30T12:11:08.673Z,32.46
2022-10-30T12:13:41.915Z,31.18
2022-10-30T12:16:20.473Z,29.43
2022-10-30T12:18:56.830Z,29.41
2022-10-30T12:21:26.041Z,26.37
2022-10-30T12:23:57.891Z,27.36
2022-10-30T12:26:27.241Z,29.91
2022-10-30T12:29:00.832Z,27.81
2022-10-30T12:31:36.027Z,25.19
2022-10-30T12:34:13.580Z,24.51
2022-10-30T12:36:47.378Z,23.18
2022-10-30T12:39:22.530Z,23.48
2022-10-30T12:41:58.570Z,25.47
2022-10-30T12:44:30.650Z,27.81
2022-10-30T12:47:02.585Z,26.81
2022-10-30T12:49:37.924Z,27.70
2022-10-30T12:52:10.282Z,25.34
2022-10-30T12:54:44.209Z,23.99
2022-10-30T12:57:16.457Z,22.43
2022-10-30T12:59:56.311Z,22.55
2022-10-30T13:02:44.574Z,21.57
2022-10-30T13:05:26.872Z,20.94
2022-10-30T13:08:04.210Z,20.89
2022-10-30T13:10:35.274Z,21.15
2022-10-30T13:13:09.326Z,21.51
2022-10-30T13:15:43.724Z,21.42
2022-10-30T13:18:17.835Z,21.34
2022-10-30T13:20:57.680Z,20.78
2022-10-30T13:23:29.773Z,20.44
2022-10-30T13:26:08.721Z,20.41
2022-10-30T13:28:43.311Z,20.11
2022-10-30T13:31:19.190Z,19.53
2022-10-30T13:33:52.686Z,19.23
2022-10-30T13:36:26.923Z,19.21
2022-10-30T13:39:00.232Z,19.46
2022-10-30T13:41:36.274Z,19.55
2022-10-30T13:44:09.257Z,18.69
2022-10-30T13:46:52.640Z,18.72
2022-10-30T13:49:39.906Z,19.28
2022-10-30T13:52:14.712Z,19.13
2022-10-30T13:54:47.400Z,18.93
2022-10-30T13:57:20.319Z,18.99
2022-10-30T13:59:55.131Z,19.09
2022-10-30T14:02:44.287Z,19.59
2022-10-30T14:05:24.402Z,19.76
2022-10-30T14:07:54.744Z,20.07
2022-10-30T14:10:30.191Z,20.24
2022-10-30T14:13:12.701Z,20.33
2022-10-30T14:15:43.939Z,19.85
2022-10-30T14:18:31.770Z,20.08
2022-10-30T14:21:01.340Z,19.91
2022-10-30T14:24:55.556Z,20.38
2022-10-30T14:27:28.333Z,20.43
2022-10-30T14:30:47.096Z,14.43
2022-10-30T14:34:47.531Z,15.20
2022-10-30T14:37:16.537Z,14.56
2022-10-30T14:39:46.355Z,14.36
2022-10-30T14:42:16.548Z,14.36
2022-10-30T14:45:06.423Z,14.15
2022-10-30T14:47:53.849Z,13.92
2022-10-30T14:50:34.241Z,13.95
2022-10-30T14:53:31.803Z,13.79
2022-10-30T14:56:06.564Z,13.31
2022-10-30T14:58:36.411Z,13.65
2022-10-30T15:01:29.096Z,13.82
2022-10-30T15:04:15.835Z,13.88
2022-10-30T15:06:58.768Z,13.78
2022-10-30T15:09:40.953Z,14.20
2022-10-30T15:12:23.901Z,14.30
2022-10-30T15:14:55.821Z,14.29
2022-10-30T15:17:29.655Z,14.31
2022-10-30T15:19:59.603Z,14.39
2022-10-30T15:22:31.314Z,14.30
2022-10-30T15:25:00.386Z,14.07
2022-10-30T15:27:29.390Z,14.10
2022-10-30T15:30:01.025Z,14.16
2022-10-30T15:32:29.667Z,14.01
2022-10-30T15:35:03.043Z,13.89
2022-10-30T15:37:33.436Z,13.73
2022-10-30T15:40:20.330Z,13.89
2022-10-30T15:42:49.980Z,13.72
2022-10-30T15:45:20.099Z,13.46
2022-10-30T15:47:50.484Z,13.48
2022-10-30T15:50:21.803Z,13.77
2022-10-30T15:52:54.072Z,13.19
2022-10-30T15:55:27.181Z,13.51
2022-10-30T15:58:03.554Z,13.79
2022-10-30T16:00:35.781Z,13.94
2022-10-30T16:03:06.343Z,13.93
2022-10-30T16:05:35.459Z,13.82
2022-10-30T16:08:12.324Z,13.94
2022-10-30T16:10:46.932Z,14.01
2022-10-30T16:13:19.056Z,13.88
2022-10-30T16:15:49.794Z,13.79
2022-10-30T16:18:21.368Z,14.17
2022-10-30T16:20:51.699Z,14.28
2022-10-30T16:23:22.363Z,14.59
2022-10-30T16:25:55.241Z,14.54
2022-10-30T16:28:25.693Z,14.52
2022-10-30T16:30:54.090Z,14.55
2022-10-30T16:33:26.681Z,14.50
2022-10-30T16:35:56.200Z,14.24
2022-10-30T16:38:30.167Z,14.21
2022-10-30T16:40:58.678Z,14.26
2022-10-30T16:43:29.950Z,14.23
2022-10-30T16:46:05.973Z,14.14
2022-10-30T16:48:36.746Z,14.11
2022-10-30T16:51:05.966Z,14.40
2022-10-30T16:53:36.210Z,13.97
2022-10-30T16:56:05.136Z,13.86
2022-10-30T16:58:33.536Z,13.92
2022-10-30T17:01:07.101Z,14.01
2022-10-30T17:03:38.341Z,13.98
2022-10-30T17:06:08.921Z,14.16
2022-10-30T17:08:42.859Z,14.12
2022-10-30T17:11:19.890Z,13.96
2022-10-30T17:14:17.886Z,13.90
2022-10-30T17:16:54.361Z,13.93
2022-10-30T17:19:48.340Z,13.96
2022-10-30T17:22:20.424Z,13.83
2022-10-30T17:24:50.508Z,13.75
2022-10-30T17:27:31.534Z,13.72
2022-10-30T17:30:00.199Z,13.47
2022-10-30T17:32:29.906Z,13.52
2022-10-30T17:35:02.067Z,13.45
2022-10-30T17:37:30.448Z,13.32
2022-10-30T17:40:00.399Z,13.34
2022-10-30T17:42:29.054Z,12.99
2022-10-30T17:44:57.693Z,12.95
2022-10-30T17:47:26.372Z,13.08
2022-10-30T17:49:54.612Z,13.19
2022-10-30T17:52:23.198Z,12.74
2022-10-30T17:54:52.159Z,13.08
2022-10-30T17:57:22.881Z,13.18
2022-10-30T17:59:51.472Z,12.96
2022-10-30T18:02:21.981Z,13.13
2022-10-30T18:04:52.665Z,12.89
2022-10-30T18:07:21.362Z,12.79
2022-10-30T18:09:50.050Z,12.64
2022-10-30T18:12:19.329Z,12.64
2022-10-30T18:14:49.280Z,12.91
2022-10-30T18:17:17.865Z,12.95
2022-10-30T18:19:46.124Z,12.96
2022-10-30T18:22:14.704Z,12.76
2022-10-30T18:24:43.481Z,12.74
2022-10-30T18:27:12.213Z,12.78
2022-10-30T18:29:40.793Z,12.71
2022-10-30T18:32:11.870Z,13.05
2022-10-30T18:34:40.142Z,12.92
2022-10-30T18:37:09.920Z,12.89
2022-10-30T18:39:38.698Z,12.74
2022-10-30T18:42:07.301Z,12.71
2022-10-30T18:44:35.900Z,12.61
2022-10-30T18:47:06.602Z,12.21
2022-10-30T18:49:36.102Z,12.34
2022-10-30T18:52:04.884Z,12.11
2022-10-30T18:54:33.548Z,12.49
2022-10-30T18:57:02.472Z,12.49
2022-10-30T18:59:31.114Z,12.48
2022-10-30T19:01:59.990Z,12.63
2022-10-30T19:04:28.451Z,12.48
2022-10-30T19:06:58.568Z,12.46
2022-10-30T19:09:27.295Z,12.38
2022-10-30T19:11:55.846Z,12.45
2022-10-30T19:14:25.218Z,12.44
2022-10-30T19:16:53.492Z,12.49
2022-10-30T19:19:22.161Z,12.43
2022-10-30T19:21:52.591Z,12.35
2022-10-30T19:24:22.647Z,12.42
2022-10-30T19:26:51.348Z,12.30
2022-10-30T19:29:19.971Z,12.30
2022-10-30T19:31:49.237Z,12.20
2022-10-30T19:34:17.848Z,12.04
2022-10-30T19:36:46.496Z,11.85
2022-10-30T19:39:16.990Z,11.97
2022-10-30T19:41:46.990Z,12.04
2022-10-30T19:44:15.622Z,11.95
2022-10-30T19:46:43.860Z,11.75
2022-10-30T19:49:18.619Z,12.01
2022-10-30T19:51:48.632Z,11.98
2022-10-30T19:54:17.192Z,11.84
2022-10-30T19:56:47.182Z,11.94
2022-10-30T19:59:16.516Z,11.64
2022-10-30T20:01:45.221Z,11.67
2022-10-30T20:04:14.053Z,11.71
2022-10-30T20:06:42.849Z,11.83
2022-10-30T20:09:12.455Z,12.02
2022-10-30T20:11:41.363Z,11.94
2022-10-30T20:14:11.395Z,12.00
2022-10-30T20:16:39.920Z,11.95
2022-10-30T20:19:28.975Z,12.20
2022-10-30T20:21:57.671Z,12.14
2022-10-30T20:24:26.287Z,12.20
2022-10-30T20:26:57.243Z,12.28
2022-10-30T20:29:27.367Z,12.17
2022-10-30T20:31:55.628Z,12.10
2022-10-30T20:34:24.219Z,12.03
2022-10-30T20:36:52.811Z,12.01
2022-10-30T20:39:21.366Z,12.06
2022-10-30T20:41:49.921Z,12.09
2022-10-30T20:44:18.455Z,12.13
2022-10-30T20:46:48.083Z,12.16
2022-10-30T20:49:17.479Z,12.15
2022-10-30T20:51:47.686Z,12.08
2022-10-30T20:54:16.354Z,12.14
2022-10-30T20:56:45.026Z,12.24
2022-10-30T20:59:13.590Z,12.28
2022-10-30T21:01:41.926Z,12.20
2022-10-30T21:04:12.097Z,12.18
2022-10-30T21:06:40.857Z,11.96
2022-10-30T21:09:10.103Z,12.04
2022-10-30T21:11:38.792Z,12.16
2022-10-30T21:14:07.462Z,12.17
2022-10-30T21:16:35.746Z,12.07
2022-10-30T21:19:04.509Z,12.06
2022-10-30T21:21:34.666Z,12.20
2022-10-30T21:24:03.279Z,12.13
2022-10-30T21:26:31.831Z,12.03
2022-10-30T21:29:00.428Z,12.09
2022-10-30T21:31:28.650Z,12.11
2022-10-30T21:33:57.249Z,12.24
2022-10-30T21:36:25.836Z,12.26
2022-10-30T21:38:55.800Z,12.30
2022-10-30T21:41:24.982Z,12.15
2022-10-30T21:43:54.136Z,12.07
2022-10-30T21:46:23.699Z,11.78
2022-10-30T21:48:52.457Z,11.55
2022-10-30T21:51:22.771Z,11.67
2022-10-30T21:53:51.728Z,11.68
2022-10-30T21:56:23.363Z,11.50
2022-10-30T21:58:52.153Z,11.44
2022-10-30T22:01:22.135Z,11.45
2022-10-30T22:03:50.917Z,11.35
2022-10-30T22:06:20.679Z,11.32
2022-10-30T22:08:50.244Z,11.20
2022-10-30T22:11:19.110Z,11.24
2022-10-30T22:13:48.799Z,11.27
2022-10-30T22:16:17.377Z,11.03
2022-10-30T22:18:45.997Z,11.00
2022-10-30T22:21:14.819Z,11.12
2022-10-30T22:23:43.716Z,11.23
2022-10-30T22:26:14.549Z,11.19
2022-10-30T22:28:42.529Z,11.27
2022-10-30T22:31:14.273Z,11.07
2022-10-30T22:33:43.287Z,10.97
2022-10-30T22:36:16.250Z,11.10
2022-10-30T22:38:45.001Z,11.13
2022-10-30T22:41:15.307Z,11.26
2022-10-30T22:43:44.754Z,11.17
2022-10-30T22:46:15.679Z,11.13
2022-10-30T22:48:44.803Z,11.15
2022-10-30T22:51:15.670Z,11.09
2022-10-30T22:53:46.333Z,11.18
2022-10-30T22:56:17.200Z,11.21
2022-10-30T22:58:45.313Z,11.17
2022-10-30T23:01:16.763Z,11.18
2022-10-30T23:03:45.778Z,10.89
2022-10-30T23:06:15.012Z,11.15
2022-10-30T23:08:43.888Z,11.14
2022-10-30T23:11:12.637Z,10.96
2022-10-30T23:13:41.494Z,11.17
2022-10-30T23:16:14.179Z,11.26
2022-10-30T23:18:44.840Z,11.32
2022-10-30T23:21:15.163Z,11.07
2022-10-30T23:23:44.647Z,11.09
2022-10-30T23:26:17.130Z,11.13
2022-10-30T23:28:45.922Z,10.38
2022-10-30T23:31:19.622Z,9.86
2022-10-30T23:33:50.804Z,10.22
2022-10-30T23:36:20.097Z,9.74
2022-10-30T23:38:52.428Z,9.70
2022-10-30T23:41:21.360Z,9.60
2022-10-30T23:43:49.729Z,9.59
2022-10-30T23:46:18.474Z,9.52
2022-10-30T23:48:47.094Z,9.49
2022-10-30T23:51:17.466Z,9.71
2022-10-30T23:53:45.832Z,9.70
2022-10-30T23:56:14.796Z,9.54
2022-10-30T23:58:44.311Z,9.51
